»·PEaware :: N228Q KMRY-KBUR

N228Q :: KMRY-KBUR

FLIGHT INFORMATION

Flight Status: Arrived
Operator: Privately registered:
United States
More flights under this callsign
Pilot: Chuck O. (4337)
Aircraft: BEECH AIRCRAFT BONANZA
(BE35)
More flights by this aircraft type
Origin: KMRY Monterey Peninsula
United States
Destination: KBUR Bob Hope-Burbank
United States
More flights between these airports :: More routes between these airports
Route: +MRY5 SNS V25 RZS V597 FIM
File this flight plan on PilotEdge
Remarks:
Altitude:
(Current/Filed)
9,000ft
Speed:
(Current/Filed)
160kts
Departed: 01-Sep-20 02:10 PM
Arrived: 01-Sep-20 03:45 PM
Distance/Time
Traveled:
223nm/1:35
Distance/Time
To Go:
Arrived

Flight Plot

Page will automatically refresh every two minutes.

Flight plan parsing failed; only flown route is shown


Map Options




Map Legend


Flown Route
Filed Route
Departure Airport
Arrival Airport
Navaid (VOR, NDB)
Fix

Horizontal Profiles

Position Reports

Time Latitude Longitude Heading Altitude Ground
Speed
01-Sep-20 13:56 36.589193 -121.858248 152 208ft 0kts
01-Sep-20 13:58 36.589188 -121.858245 152 208ft 0kts
01-Sep-20 13:59 36.589184 -121.858243 152 208ft 0kts
01-Sep-20 13:59 36.589181 -121.858241 152 208ft 0kts
01-Sep-20 14:01 36.589177 -121.858238 152 208ft 0kts
01-Sep-20 14:02 36.589173 -121.858235 152 208ft 0kts
01-Sep-20 14:02 36.589170 -121.858233 152 208ft 0kts
01-Sep-20 14:04 36.589166 -121.858230 152 208ft 0kts
01-Sep-20 14:04 36.589162 -121.858228 152 208ft 0kts
01-Sep-20 14:05 36.589159 -121.858226 152 208ft 0kts
01-Sep-20 14:06 36.589197 -121.856987 73 208ft 6kts
01-Sep-20 14:07 36.590440 -121.856840 350 208ft 0kts
01-Sep-20 14:08 36.590442 -121.856840 350 208ft 0kts
01-Sep-20 14:09 36.589898 -121.852751 111 208ft 66kts
01-Sep-20 14:10 36.593802 -121.829086 347 1179ft 112kts
01-Sep-20 14:11 36.624296 -121.844219 339 2462ft 120kts
01-Sep-20 14:12 36.655784 -121.858138 340 3626ft 120kts
01-Sep-20 14:13 36.667582 -121.826506 87 4537ft 112kts
01-Sep-20 14:14 36.670724 -121.787725 88 5642ft 116kts
01-Sep-20 14:15 36.669478 -121.746968 91 6638ft 118kts
01-Sep-20 14:16 36.667904 -121.705783 91 7473ft 119kts
01-Sep-20 14:17 36.666278 -121.664132 92 8299ft 120kts
01-Sep-20 14:18 36.664608 -121.621778 92 8952ft 126kts
01-Sep-20 14:19 36.643775 -121.582693 140 9008ft 157kts
01-Sep-20 14:20 36.608495 -121.547739 140 9010ft 165kts
01-Sep-20 14:21 36.572208 -121.511537 140 9003ft 168kts
01-Sep-20 14:22 36.535714 -121.475145 140 9002ft 167kts
01-Sep-20 14:23 36.498845 -121.438415 140 9004ft 173kts
01-Sep-20 14:24 36.461624 -121.401388 140 9006ft 172kts
01-Sep-20 14:25 36.424340 -121.364341 140 8991ft 169kts
01-Sep-20 14:26 36.387668 -121.327942 140 8993ft 168kts
01-Sep-20 14:27 36.351113 -121.291704 140 8990ft 168kts
01-Sep-20 14:28 36.314520 -121.255472 140 8989ft 168kts
01-Sep-20 14:29 36.277741 -121.219103 140 8985ft 168kts
01-Sep-20 14:30 36.241300 -121.183114 140 8975ft 166kts
01-Sep-20 14:31 36.204950 -121.147257 140 8971ft 167kts
01-Sep-20 14:32 36.167897 -121.110753 140 8962ft 172kts
01-Sep-20 14:33 36.130373 -121.073835 140 8960ft 173kts
01-Sep-20 14:34 36.093181 -121.037288 140 8951ft 168kts
01-Sep-20 14:35 36.056436 -121.001217 140 8944ft 173kts
01-Sep-20 14:36 36.019079 -120.964602 140 8941ft 169kts
01-Sep-20 14:37 35.982096 -120.928399 140 8935ft 170kts
01-Sep-20 14:38 35.944785 -120.891925 140 8945ft 173kts
01-Sep-20 14:39 35.907475 -120.855505 140 8940ft 168kts
01-Sep-20 14:40 35.870905 -120.819841 140 8933ft 167kts
01-Sep-20 14:41 35.834307 -120.784197 140 8932ft 167kts
01-Sep-20 14:42 35.797105 -120.748003 140 8940ft 174kts
01-Sep-20 14:43 35.759770 -120.711737 140 8934ft 169kts
01-Sep-20 14:44 35.722377 -120.675444 140 8947ft 173kts
01-Sep-20 14:45 35.685099 -120.639322 140 8950ft 169kts
01-Sep-20 14:46 35.645928 -120.607230 147 8951ft 169kts
01-Sep-20 14:47 35.605662 -120.577110 147 8945ft 170kts
01-Sep-20 14:48 35.564673 -120.546494 147 8958ft 175kts
01-Sep-20 14:49 35.523683 -120.515927 147 8953ft 170kts
01-Sep-20 14:50 35.483670 -120.486112 147 8973ft 168kts
01-Sep-20 14:51 35.442969 -120.455816 147 8977ft 171kts
01-Sep-20 14:52 35.402428 -120.425690 147 8969ft 169kts
01-Sep-20 14:53 35.362109 -120.395756 147 8974ft 170kts
01-Sep-20 14:54 35.321406 -120.365577 147 8987ft 173kts
01-Sep-20 14:55 35.280756 -120.335476 147 8976ft 169kts
01-Sep-20 14:56 35.240441 -120.305656 147 8978ft 168kts
01-Sep-20 14:57 35.200643 -120.276249 147 8993ft 167kts
01-Sep-20 14:58 35.160623 -120.246713 147 9001ft 167kts
01-Sep-20 14:59 35.120540 -120.217165 147 8994ft 167kts
01-Sep-20 15:00 35.080716 -120.187842 147 8993ft 167kts
01-Sep-20 15:01 35.040906 -120.158564 147 8995ft 167kts
01-Sep-20 15:02 35.000767 -120.129076 147 8996ft 169kts
01-Sep-20 15:03 34.960105 -120.099242 148 8995ft 173kts
01-Sep-20 15:04 34.919541 -120.069520 148 8980ft 168kts
01-Sep-20 15:05 34.879273 -120.040038 148 8991ft 169kts
01-Sep-20 15:06 34.838808 -120.010450 148 8994ft 171kts
01-Sep-20 15:07 34.798698 -119.981158 148 8988ft 168kts
01-Sep-20 15:08 34.758701 -119.951981 148 8977ft 166kts
01-Sep-20 15:09 34.718996 -119.923049 148 8991ft 165kts
01-Sep-20 15:10 34.679247 -119.894116 148 9021ft 167kts
01-Sep-20 15:11 34.639464 -119.865194 148 9016ft 166kts
01-Sep-20 15:12 34.599739 -119.836346 148 9028ft 165kts
01-Sep-20 15:13 34.560250 -119.807701 149 9029ft 165kts
01-Sep-20 15:14 34.519977 -119.778510 148 9022ft 171kts
01-Sep-20 15:15 34.501943 -119.728295 101 9023ft 166kts
01-Sep-20 15:16 34.493022 -119.673373 102 9019ft 165kts
01-Sep-20 15:17 34.483838 -119.618638 102 9023ft 165kts
01-Sep-20 15:18 34.474558 -119.563806 102 9023ft 166kts
01-Sep-20 15:19 34.465252 -119.509029 102 9019ft 166kts
01-Sep-20 15:20 34.455856 -119.453895 102 9016ft 166kts
01-Sep-20 15:21 34.446472 -119.398989 102 9012ft 166kts
01-Sep-20 15:22 34.437050 -119.344020 102 9014ft 166kts
01-Sep-20 15:23 34.427621 -119.289159 102 9014ft 166kts
01-Sep-20 15:24 34.418170 -119.234314 102 9018ft 166kts
01-Sep-20 15:25 34.408694 -119.179475 102 9021ft 166kts
01-Sep-20 15:26 34.399163 -119.124479 102 9024ft 166kts
01-Sep-20 15:27 34.389547 -119.069156 102 9023ft 170kts
01-Sep-20 15:28 34.379837 -119.013451 102 9007ft 168kts
01-Sep-20 15:29 34.370046 -118.957434 102 8950ft 174kts
01-Sep-20 15:30 34.359472 -118.897118 102 8115ft 188kts
01-Sep-20 15:31 34.354020 -118.836126 98 7773ft 160kts
01-Sep-20 15:32 34.350557 -118.783419 94 6257ft 150kts
01-Sep-20 15:33 34.346533 -118.730682 94 5527ft 162kts
01-Sep-20 15:34 34.341993 -118.676626 95 5004ft 153kts
01-Sep-20 15:35 34.337943 -118.627580 94 4995ft 143kts
01-Sep-20 15:36 34.334491 -118.579288 92 4996ft 145kts
01-Sep-20 15:37 34.336887 -118.529521 90 4633ft 157kts
01-Sep-20 15:38 34.335521 -118.475333 90 3680ft 164kts
01-Sep-20 15:39 34.314798 -118.429304 133 3083ft 154kts
01-Sep-20 15:40 34.284490 -118.395152 130 3083ft 144kts
01-Sep-20 15:41 34.254383 -118.370654 176 2116ft 120kts
01-Sep-20 15:42 34.225203 -118.363739 167 1143ft 95kts
01-Sep-20 15:44 34.203217 -118.357937 167 724ft 51kts
01-Sep-20 15:45 34.198948 -118.357807 287 724ft 2kts
01-Sep-20 15:46 34.199941 -118.358654 262 724ft 5kts
01-Sep-20 15:47 34.199931 -118.358702 248 724ft 0kts
01-Sep-20 15:48 34.199931 -118.358702 248 724ft 0kts
01-Sep-20 15:49 34.199931 -118.358702 248 724ft 0kts
01-Sep-20 15:50 34.199931 -118.358702 248 724ft 0kts
01-Sep-20 15:51 34.199931 -118.358702 248 724ft 0kts

Navigation Log

Ident Type
Flight plan parsing failed, navigation log unavailable